To NAV CANADA Home Page Login to a new session Search on AWWS site Disclaimer Vers la page française équivalente Tips FAQ What's new on the site To the Forecasts and Observations / NOTAM section To "File a Flight Plan" website Publications and other links Update of the User's profile FIC Telephone Numbers My Weather Data Folder Route Weather Data Regional Weather Data Local Weather Data To the Forecasts and Observations / NOTAM section
Request Generated 11/13/2018 at 18:35:22 UTC . Weather information available at that time is displayed.

METAR/TAF

SHERBROOKE/QC    (show WxCam)

SPECI CYSC 131829Z AUTO 30002KT 1SM -SN VV007 00/00 A2985 RMK SLP121=
SPECI CYSC 131824Z AUTO VRB02KT 1 1/2SM -RASN OVC006 00/00 A2985 RMK SLP121=
SPECI CYSC 131821Z AUTO 00000KT 1 3/4SM -RASN OVC008 00/00 A2985 RMK SLP121=
SPECI CYSC 131816Z AUTO 00000KT 2 1/2SM -RASN OVC008 00/00 A2985 RMK VIS VRB 1 1/4-3 PRESFR SLP122=
SPECI CYSC 131812Z AUTO 34002KT 2SM -SN OVC008 00/00 A2985 RMK VIS VRB 1-3 PRESFR SLP122=
SPECI CYSC 131809Z AUTO VRB02KT 1 1/2SM -SN FEW004 OVC008 00/00 A2986 RMK VIS VRB 1-3 SLP124=
SPECI CYSC 131801Z AUTO 00000KT 1SM -SN VV006 00/00 A2987 RMK PRESFR SLP127=
METAR CYSC 131800Z AUTO 00000KT 3/4SM -SN VV007 00/00 A2987 RMK PRESFR PCPN 0.5MM PAST HR SLP127=
SPECI CYSC 131731Z AUTO 34003KT 3/4SM -SN BKN003 OVC016 00/00 A2989 RMK SLP135=
SPECI CYSC 131726Z AUTO VRB02KT 1SM -SN SCT003 BKN007 OVC016 00/00 A2989 RMK VIS VRB 3/4-2 1/4 SLP135=
METAR CYSC 131700Z AUTO 05002KT 1 1/4SM -SN FEW005 OVC012 00/00 A2991 RMK VIS VRB 1-2 SLP140=
SPECI CYSC 131609Z AUTO 07004KT 1SM -SN SCT003 OVC010 00/00 A2995 RMK PRESFR SLP155=
METAR CYSC 131600Z AUTO 08004KT 1SM -SN SCT003 OVC008 00/00 A2996 RMK SLP159=

TAF CYSC 131742Z 1318/1403 15006KT 11/2SM -SN OVC012 TEMPO 1318/1321
3/4SM -SN BKN003 OVC008
FM132100 27005KT 3SM -SN OVC006 TEMPO 1321/1402 6SM BR OVC012
FM140200 28010G20KT P6SM BKN025 TEMPO 1402/1403 BKN015
RMK FCST BASED ON AUTO OBS. NXT FCST BY 140000Z=
Your time UTC time
Weather data provided by Environment Canada and NAV CANADA